Terminal Aerodrome Forecast
Issued by NWS Tampa Bay Area, FL

Home | Current Version | Previous Version | Text Only | Print | Product List | Glossary On
Versions: 1 2 3 4 5 6 7 8 9 10 11 12 13 14
000
FTUS42 KTBW 252049 AAA
TAFSRQ
TAF AMD
KSRQ 252049Z 2521/2618 28011KT P6SM SCT050 SCT150
      TEMPO 2521/2523 VRB20G30KT 3SM +TSRA BKN025CB
     FM252300 29007KT P6SM VCTS BKN040CB BKN250
     FM260200 11007KT P6SM SCT030 SCT100 SCT250=

USA.gov is the U.S. government's official web portal to all federal, state and local government web resources and services.